createdAt,value
2017-09-04T00:00:43.011Z,4.73
2017-09-04T00:03:11.371Z,4.63
2017-09-04T00:05:39.668Z,5.03
2017-09-04T00:08:07.965Z,4.10
2017-09-04T00:10:36.288Z,5.00
2017-09-04T00:13:04.587Z,4.80
2017-09-04T00:15:32.899Z,5.47
2017-09-04T00:18:01.195Z,4.53
2017-09-04T00:20:29.508Z,4.87
2017-09-04T00:22:57.805Z,3.87
2017-09-04T00:25:26.146Z,4.40
2017-09-04T00:27:54.441Z,4.60
2017-09-04T00:30:22.751Z,4.70
2017-09-04T00:32:51.100Z,4.13
2017-09-04T00:35:19.537Z,4.80
2017-09-04T00:37:47.832Z,5.37
2017-09-04T00:40:16.276Z,4.20
2017-09-04T00:42:44.578Z,5.00
2017-09-04T00:45:12.865Z,5.10
2017-09-04T00:47:41.186Z,5.00
2017-09-04T00:50:09.501Z,4.13
2017-09-04T00:52:37.832Z,4.30
2017-09-04T00:55:06.137Z,4.97
2017-09-04T00:57:34.447Z,5.00
2017-09-04T01:00:02.756Z,5.53
2017-09-04T01:02:31.092Z,5.00
2017-09-04T01:04:59.392Z,5.80
2017-09-04T01:07:27.716Z,5.40
2017-09-04T01:09:56.032Z,5.40
2017-09-04T01:12:24.355Z,5.20
2017-09-04T01:14:52.636Z,5.20
2017-09-04T01:17:20.995Z,4.67
2017-09-04T01:19:49.283Z,5.10
2017-09-04T01:22:17.585Z,4.73
2017-09-04T01:24:45.904Z,5.13
2017-09-04T01:27:14.188Z,5.00
2017-09-04T01:29:42.505Z,5.07
2017-09-04T01:32:10.793Z,4.60
2017-09-04T01:34:39.099Z,4.87
2017-09-04T01:37:07.396Z,5.13
2017-09-04T01:39:35.715Z,4.90
2017-09-04T01:42:03.996Z,5.27
2017-09-04T01:44:32.331Z,5.20
2017-09-04T01:47:00.635Z,6.23
2017-09-04T01:49:28.966Z,4.80
2017-09-04T01:51:57.257Z,4.30
2017-09-04T01:54:25.579Z,5.83
2017-09-04T01:56:53.868Z,5.40
2017-09-04T01:59:22.163Z,5.00
2017-09-04T02:01:50.483Z,4.50
2017-09-04T02:04:18.786Z,4.70
2017-09-04T02:06:47.239Z,4.47
2017-09-04T02:09:15.556Z,4.90
2017-09-04T02:11:43.982Z,4.00
2017-09-04T02:14:12.286Z,4.77
2017-09-04T02:16:40.601Z,4.30
2017-09-04T02:19:08.888Z,4.17
2017-09-04T02:21:37.214Z,4.23
2017-09-04T02:24:05.502Z,5.43
2017-09-04T02:26:33.825Z,5.00
2017-09-04T02:29:02.128Z,5.33
2017-09-04T02:31:30.465Z,4.57
2017-09-04T02:33:58.758Z,5.80
2017-09-04T02:36:27.051Z,5.57
2017-09-04T02:38:55.369Z,5.30
2017-09-04T02:41:23.795Z,5.80
2017-09-04T02:43:52.119Z,5.40
2017-09-04T02:46:20.415Z,5.60
2017-09-04T02:48:48.733Z,5.20
2017-09-04T02:51:17.025Z,5.63
2017-09-04T02:53:45.352Z,5.00
2017-09-04T02:56:13.664Z,5.50
2017-09-04T02:58:41.985Z,5.10
2017-09-04T03:01:11.048Z,4.77
2017-09-04T03:03:39.367Z,4.80
2017-09-04T03:06:07.666Z,4.77
2017-09-04T03:08:36.004Z,5.00
2017-09-04T03:11:04.308Z,5.30
2017-09-04T03:13:32.605Z,5.27
2017-09-04T03:16:00.938Z,5.37
2017-09-04T03:18:29.234Z,5.20
2017-09-04T03:20:57.557Z,5.73
2017-09-04T03:23:25.865Z,4.90
2017-09-04T03:25:54.185Z,4.60
2017-09-04T03:28:22.488Z,5.57
2017-09-04T03:30:50.822Z,4.43
2017-09-04T03:33:19.133Z,5.40
2017-09-04T03:35:47.469Z,4.47
2017-09-04T03:38:15.778Z,5.07
2017-09-04T03:40:44.096Z,4.73
2017-09-04T03:43:12.397Z,5.17
2017-09-04T03:45:44.677Z,5.57
2017-09-04T03:48:12.995Z,6.37
2017-09-04T03:50:41.289Z,6.30
2017-09-04T03:53:09.630Z,7.43
2017-09-04T03:55:37.945Z,7.53
2017-09-04T03:58:06.288Z,9.90
2017-09-04T04:00:34.599Z,8.80
2017-09-04T04:03:02.948Z,7.70
2017-09-04T04:05:31.262Z,7.37
2017-09-04T04:07:59.589Z,8.67
2017-09-04T04:10:29.871Z,7.10
2017-09-04T04:12:58.214Z,7.90
2017-09-04T04:15:26.530Z,9.00
2017-09-04T04:17:54.849Z,9.17
2017-09-04T04:20:23.154Z,9.33
2017-09-04T04:22:51.452Z,9.10
2017-09-04T04:25:19.783Z,8.10
2017-09-04T04:27:48.849Z,9.80
2017-09-04T04:30:17.181Z,11.43
2017-09-04T04:32:45.525Z,10.83
2017-09-04T04:35:13.849Z,9.10
2017-09-04T04:37:42.153Z,8.87
2017-09-04T04:40:10.478Z,9.60
2017-09-04T04:42:38.790Z,11.23
2017-09-04T04:45:07.126Z,12.60
2017-09-04T04:47:35.428Z,14.40
2017-09-04T04:50:03.775Z,12.50
2017-09-04T04:52:32.085Z,13.20
2017-09-04T04:55:00.425Z,12.67
2017-09-04T04:57:28.729Z,13.63
2017-09-04T04:59:57.043Z,12.37
2017-09-04T05:02:25.372Z,13.20
2017-09-04T05:04:53.676Z,13.33
2017-09-04T05:07:22.043Z,14.53
2017-09-04T05:09:50.355Z,15.10
2017-09-04T05:12:18.680Z,15.70
2017-09-04T05:14:46.990Z,13.80
2017-09-04T05:17:15.330Z,14.60
2017-09-04T05:19:43.628Z,13.40
2017-09-04T05:22:11.972Z,12.27
2017-09-04T05:24:40.284Z,14.90
2017-09-04T05:27:08.618Z,14.23
2017-09-04T05:29:36.939Z,13.30
2017-09-04T05:32:05.286Z,12.77
2017-09-04T05:34:33.596Z,13.33
2017-09-04T05:37:01.911Z,14.17
2017-09-04T05:39:30.239Z,14.33
2017-09-04T05:41:58.549Z,13.73
2017-09-04T05:44:26.880Z,13.37
2017-09-04T05:46:55.185Z,13.10
2017-09-04T05:49:23.523Z,13.27
2017-09-04T05:51:51.842Z,11.10
2017-09-04T05:54:20.174Z,12.90
2017-09-04T05:56:48.481Z,12.90
2017-09-04T05:59:16.822Z,13.33
2017-09-04T06:01:45.147Z,9.57
2017-09-04T06:04:13.483Z,10.60
2017-09-04T06:06:41.786Z,10.37
2017-09-04T06:09:10.112Z,7.80
2017-09-04T06:11:38.428Z,8.57
2017-09-04T06:14:06.726Z,7.50
2017-09-04T06:16:35.058Z,7.40
2017-09-04T06:19:03.360Z,7.90
2017-09-04T06:21:31.692Z,7.57
2017-09-04T06:24:00.021Z,8.30
2017-09-04T06:26:28.349Z,8.03
2017-09-04T06:28:56.649Z,8.70
2017-09-04T06:31:24.980Z,8.30
2017-09-04T06:33:53.278Z,8.77
2017-09-04T06:36:21.608Z,7.63
2017-09-04T06:38:49.908Z,9.60
2017-09-04T06:41:18.242Z,8.40
2017-09-04T06:43:46.545Z,7.83
2017-09-04T06:46:14.890Z,8.97
2017-09-04T06:48:43.190Z,8.90
2017-09-04T06:51:11.529Z,9.40
2017-09-04T06:53:56.681Z,10.67
2017-09-04T06:56:25.025Z,10.27
2017-09-04T06:58:53.330Z,10.50
2017-09-04T07:01:21.637Z,10.13
2017-09-04T07:03:49.962Z,9.60
2017-09-04T07:06:18.269Z,10.20
2017-09-04T07:08:46.605Z,9.60
2017-09-04T07:11:14.904Z,10.20
2017-09-04T07:13:43.233Z,12.07
2017-09-04T07:16:11.544Z,10.43
2017-09-04T07:18:39.879Z,11.50
2017-09-04T07:21:08.191Z,10.50
2017-09-04T07:23:36.518Z,10.90
2017-09-04T07:26:04.825Z,9.73
2017-09-04T07:28:33.165Z,10.47
2017-09-04T07:31:01.479Z,11.30
2017-09-04T07:33:29.791Z,12.27
2017-09-04T07:35:58.129Z,14.10
2017-09-04T07:38:26.460Z,14.50
2017-09-04T07:40:54.789Z,13.37
2017-09-04T07:43:23.108Z,13.10
2017-09-04T07:45:51.442Z,13.13
2017-09-04T07:48:20.523Z,12.53
2017-09-04T07:50:48.853Z,13.80
2017-09-04T07:53:17.178Z,11.87
2017-09-04T07:55:45.519Z,13.67
2017-09-04T07:58:13.828Z,12.60
2017-09-04T08:00:42.165Z,11.53
2017-09-04T08:03:10.482Z,11.60
2017-09-04T08:05:38.825Z,12.10
2017-09-04T08:08:07.134Z,11.83
2017-09-04T08:10:35.445Z,11.50
2017-09-04T08:13:03.774Z,11.07
2017-09-04T08:15:32.093Z,11.83
2017-09-04T08:18:00.430Z,9.37
2017-09-04T08:20:28.754Z,10.20
2017-09-04T08:22:57.101Z,10.00
2017-09-04T08:25:25.414Z,11.20
2017-09-04T08:27:53.756Z,11.03
2017-09-04T08:30:22.076Z,9.43
2017-09-04T08:32:50.410Z,10.13
2017-09-04T08:35:18.725Z,9.10
2017-09-04T08:37:47.036Z,8.50
2017-09-04T08:40:15.385Z,9.40
2017-09-04T08:42:43.699Z,10.47
2017-09-04T08:45:12.033Z,8.80
2017-09-04T08:47:40.346Z,8.53
2017-09-04T08:50:08.677Z,7.93
2017-09-04T08:52:36.999Z,8.33
2017-09-04T08:55:05.358Z,9.40
2017-09-04T08:57:33.666Z,9.27
2017-09-04T09:00:02.013Z,8.70
2017-09-04T09:02:30.338Z,9.17
2017-09-04T09:04:58.672Z,8.47
2017-09-04T09:07:27.021Z,7.60
2017-09-04T09:09:55.333Z,7.60
2017-09-04T09:12:23.673Z,7.27
2017-09-04T09:14:51.997Z,7.20
2017-09-04T09:17:20.351Z,6.70
2017-09-04T09:19:48.678Z,5.73
2017-09-04T09:22:17.029Z,7.17
2017-09-04T09:24:45.347Z,6.20
2017-09-04T09:27:13.689Z,6.40
2017-09-04T09:29:41.998Z,5.63
2017-09-04T09:32:10.309Z,6.23
2017-09-04T09:34:38.644Z,6.20
2017-09-04T09:37:06.955Z,7.20
2017-09-04T09:39:35.280Z,6.10
2017-09-04T09:42:03.596Z,6.30
2017-09-04T09:44:31.921Z,7.40
2017-09-04T09:47:00.258Z,5.90
2017-09-04T09:49:28.587Z,6.00
2017-09-04T09:51:56.901Z,6.40
2017-09-04T09:54:25.245Z,6.27
2017-09-04T09:56:53.562Z,5.80
2017-09-04T09:59:21.893Z,5.60
2017-09-04T10:01:50.209Z,5.90
2017-09-04T10:04:18.522Z,5.10
2017-09-04T10:06:46.851Z,5.63
2017-09-04T10:09:15.173Z,5.90
2017-09-04T10:11:43.498Z,5.30
2017-09-04T10:14:11.803Z,5.70
2017-09-04T10:16:40.141Z,5.50
2017-09-04T10:19:08.458Z,5.03
2017-09-04T10:21:36.798Z,4.60
2017-09-04T10:24:05.106Z,4.20
2017-09-04T10:26:33.434Z,4.60
2017-09-04T10:29:01.734Z,4.23
2017-09-04T10:31:30.077Z,4.90
2017-09-04T10:33:58.379Z,4.80
2017-09-04T10:36:26.686Z,4.00
2017-09-04T10:38:55.008Z,4.20
2017-09-04T10:41:23.309Z,4.00
2017-09-04T10:43:51.631Z,3.77
2017-09-04T10:46:19.936Z,3.90
2017-09-04T10:48:48.260Z,3.83
2017-09-04T10:51:16.562Z,3.40
2017-09-04T10:53:44.891Z,3.60
2017-09-04T10:56:13.198Z,3.77
2017-09-04T10:58:41.531Z,3.70
2017-09-04T11:01:09.829Z,2.90
2017-09-04T11:03:38.149Z,3.03
2017-09-04T11:06:06.454Z,2.93
2017-09-04T11:08:34.776Z,3.00
2017-09-04T11:11:03.101Z,2.70
2017-09-04T11:13:31.427Z,3.70
2017-09-04T11:15:59.738Z,4.10
2017-09-04T11:18:28.073Z,3.43
2017-09-04T11:20:56.380Z,3.40
2017-09-04T11:23:24.686Z,2.80
2017-09-04T11:25:53.019Z,2.60
2017-09-04T11:28:21.319Z,2.63
2017-09-04T11:30:49.641Z,2.03
2017-09-04T11:33:17.957Z,2.70
2017-09-04T11:35:46.281Z,2.07
2017-09-04T11:38:14.581Z,2.27
2017-09-04T11:40:42.921Z,2.40
2017-09-04T11:43:11.234Z,2.73
2017-09-04T11:45:39.569Z,2.03
2017-09-04T11:48:08.651Z,1.87
2017-09-04T11:50:37.013Z,1.90
2017-09-04T11:53:05.330Z,1.97
2017-09-04T11:55:33.666Z,1.77
2017-09-04T11:58:01.977Z,2.00
2017-09-04T12:00:30.318Z,1.50
2017-09-04T12:02:58.633Z,1.70
2017-09-04T12:05:26.958Z,2.20
2017-09-04T12:07:55.277Z,1.60
2017-09-04T12:10:23.587Z,1.83
2017-09-04T12:12:51.930Z,2.07
2017-09-04T12:15:20.237Z,1.93
2017-09-04T12:17:48.558Z,1.40
2017-09-04T12:20:16.861Z,1.90
2017-09-04T12:22:45.198Z,1.60
2017-09-04T12:25:13.527Z,1.80
2017-09-04T12:27:41.845Z,1.80
2017-09-04T12:30:10.145Z,1.90
2017-09-04T12:32:38.489Z,1.57
2017-09-04T12:35:06.795Z,1.90
2017-09-04T12:37:35.124Z,1.83
2017-09-04T12:40:04.252Z,1.40
2017-09-04T12:42:32.558Z,1.60
2017-09-04T12:45:00.894Z,1.87
2017-09-04T12:47:29.194Z,1.80
2017-09-04T12:49:57.513Z,1.97
2017-09-04T12:52:25.829Z,1.57
2017-09-04T12:54:54.158Z,1.90
2017-09-04T12:57:22.467Z,1.93
2017-09-04T12:59:51.563Z,1.77
2017-09-04T13:02:19.862Z,1.97
2017-09-04T13:04:48.205Z,2.00
2017-09-04T13:07:16.506Z,1.90
2017-09-04T13:09:44.842Z,1.73
2017-09-04T13:12:17.618Z,1.83
2017-09-04T13:17:44.915Z,1.83
2017-09-04T13:20:18.887Z,1.67
2017-09-04T13:22:52.948Z,1.93
2017-09-04T13:25:33.983Z,1.80
2017-09-04T13:31:20.890Z,1.70
2017-09-04T13:33:54.800Z,1.63
2017-09-04T13:39:51.302Z,1.80
2017-09-04T13:42:25.295Z,2.60
2017-09-04T13:45:13.296Z,1.50
2017-09-04T13:47:47.363Z,1.80
2017-09-04T13:53:21.905Z,1.90
2017-09-04T13:58:55.753Z,2.03
2017-09-04T14:01:38.963Z,1.60
2017-09-04T14:04:12.849Z,1.57
2017-09-04T14:09:47.496Z,2.30
2017-09-04T14:12:36.712Z,1.30
2017-09-04T14:15:10.792Z,2.40
2017-09-04T14:17:53.905Z,1.70
2017-09-04T14:20:22.206Z,1.73
2017-09-04T14:22:50.564Z,1.73
2017-09-04T14:25:18.863Z,1.60
2017-09-04T14:27:47.166Z,2.23
2017-09-04T14:30:15.493Z,1.40
2017-09-04T14:32:43.793Z,1.37
2017-09-04T14:35:12.128Z,2.00
2017-09-04T14:37:40.429Z,1.90
2017-09-04T14:40:08.758Z,1.77
2017-09-04T14:42:51.938Z,1.40
2017-09-04T14:45:22.734Z,1.80
2017-09-04T14:47:51.635Z,2.57
2017-09-04T14:50:19.957Z,1.43
2017-09-04T14:52:48.267Z,1.63
2017-09-04T14:55:16.594Z,1.50
2017-09-04T14:57:44.902Z,1.67
2017-09-04T15:00:13.233Z,1.73
2017-09-04T15:02:41.566Z,1.63
2017-09-04T15:05:09.908Z,1.67
2017-09-04T15:07:38.206Z,1.77
2017-09-04T15:10:06.506Z,2.20
2017-09-04T15:12:34.825Z,1.60
2017-09-04T15:15:03.132Z,1.60
2017-09-04T15:17:31.454Z,1.50
2017-09-04T15:19:59.752Z,1.50
2017-09-04T15:22:28.086Z,1.60
2017-09-04T15:24:56.403Z,1.50
2017-09-04T15:27:24.738Z,1.70
2017-09-04T15:29:53.044Z,1.90
2017-09-04T15:32:22.136Z,1.57
2017-09-04T15:34:50.433Z,1.60
2017-09-04T15:37:18.769Z,1.80
2017-09-04T15:39:47.096Z,1.67
2017-09-04T15:42:15.433Z,1.70
2017-09-04T15:44:43.729Z,1.43
2017-09-04T15:47:12.037Z,1.57
2017-09-04T15:49:40.370Z,1.80
2017-09-04T15:52:08.669Z,1.73
2017-09-04T15:54:36.998Z,1.60
2017-09-04T15:57:06.066Z,1.60
2017-09-04T15:59:34.397Z,1.53
2017-09-04T16:02:02.706Z,1.60
2017-09-04T16:04:31.038Z,1.87
2017-09-04T16:09:58.965Z,1.67
2017-09-04T16:12:42.157Z,1.97
2017-09-04T16:15:14.289Z,1.83
2017-09-04T16:17:43.519Z,1.80
2017-09-04T16:26:18.284Z,1.83
2017-09-04T16:28:50.446Z,1.70
2017-09-04T16:34:23.193Z,1.57
2017-09-04T16:36:53.442Z,1.60
2017-09-04T16:39:21.787Z,1.80
2017-09-04T16:41:50.882Z,2.00
2017-09-04T16:44:35.916Z,2.60
2017-09-04T16:47:06.880Z,1.97
2017-09-04T16:49:38.242Z,2.17
2017-09-04T16:52:10.032Z,1.70
2017-09-04T16:54:40.249Z,2.00
2017-09-04T16:57:10.185Z,1.93
2017-09-04T16:59:38.571Z,1.87
2017-09-04T17:02:06.895Z,1.77
2017-09-04T17:04:35.194Z,1.97
2017-09-04T17:07:03.514Z,1.90
2017-09-04T17:09:31.825Z,1.83
2017-09-04T17:12:00.645Z,1.70
2017-09-04T17:14:28.945Z,1.70
2017-09-04T17:20:02.346Z,1.77
2017-09-04T17:22:33.205Z,2.17
2017-09-04T17:25:07.176Z,2.23
2017-09-04T17:27:35.502Z,2.20
2017-09-04T17:30:03.809Z,1.77
2017-09-04T17:32:32.137Z,1.87
2017-09-04T17:35:00.444Z,2.20
2017-09-04T17:37:28.783Z,2.30
2017-09-04T17:39:57.083Z,1.90
2017-09-04T17:42:25.412Z,2.50
2017-09-04T17:44:53.717Z,1.90
2017-09-04T17:47:22.051Z,2.30
2017-09-04T17:49:50.359Z,2.20
2017-09-04T17:52:18.666Z,2.20
2017-09-04T17:54:46.994Z,2.50
2017-09-04T17:57:15.295Z,2.50
2017-09-04T17:59:44.406Z,3.37
2017-09-04T18:02:12.730Z,2.40
2017-09-04T18:04:41.211Z,2.97
2017-09-04T18:07:09.514Z,2.70
2017-09-04T18:09:37.845Z,2.50
2017-09-04T18:12:06.211Z,2.10
2017-09-04T18:14:34.543Z,2.63
2017-09-04T18:17:02.849Z,2.43
2017-09-04T18:19:31.191Z,2.13
2017-09-04T18:21:59.493Z,2.60
2017-09-04T18:24:27.813Z,2.37
2017-09-04T18:26:56.144Z,2.53
2017-09-04T18:29:24.445Z,2.10
2017-09-04T18:31:52.775Z,2.23
2017-09-04T18:34:21.087Z,2.50
2017-09-04T18:36:49.412Z,2.60
2017-09-04T18:39:17.741Z,2.77
2017-09-04T18:41:46.065Z,2.20
2017-09-04T18:44:14.390Z,2.50
2017-09-04T18:46:42.713Z,2.97
2017-09-04T18:49:11.018Z,3.03
2017-09-04T18:51:39.359Z,2.50
2017-09-04T18:54:07.665Z,3.27
2017-09-04T18:56:35.961Z,2.80
2017-09-04T18:59:04.289Z,3.10
2017-09-04T19:01:32.586Z,2.50
2017-09-04T19:04:00.919Z,2.63
2017-09-04T19:06:29.230Z,3.07
2017-09-04T19:08:57.567Z,4.10
2017-09-04T19:11:25.873Z,3.00
2017-09-04T19:13:54.207Z,2.60
2017-09-04T19:16:22.570Z,3.07
2017-09-04T19:18:50.900Z,2.50
2017-09-04T19:21:19.974Z,3.07
2017-09-04T19:23:48.314Z,2.77
2017-09-04T19:26:16.624Z,2.43
2017-09-04T19:28:44.968Z,3.43
2017-09-04T19:31:13.275Z,3.27
2017-09-04T19:33:41.590Z,2.90
2017-09-04T19:36:09.926Z,3.43
2017-09-04T19:38:38.234Z,3.07
2017-09-04T19:41:06.569Z,3.10
2017-09-04T19:43:34.874Z,3.30
2017-09-04T19:46:03.209Z,3.07
2017-09-04T19:48:31.506Z,3.40
2017-09-04T19:50:59.835Z,3.40
2017-09-04T19:53:28.160Z,3.80
2017-09-04T19:55:56.491Z,3.70
2017-09-04T19:58:24.806Z,2.87
2017-09-04T20:00:53.133Z,3.47
2017-09-04T20:03:21.457Z,3.33
2017-09-04T20:05:49.780Z,3.53
2017-09-04T20:08:18.103Z,3.60
2017-09-04T20:10:46.431Z,3.57
2017-09-04T20:13:14.744Z,3.10
2017-09-04T20:15:43.090Z,3.60
2017-09-04T20:18:11.398Z,3.70
2017-09-04T20:20:39.730Z,3.93
2017-09-04T20:23:08.046Z,3.60
2017-09-04T20:25:36.373Z,3.33
2017-09-04T20:28:05.447Z,4.17
2017-09-04T20:30:33.856Z,3.87
2017-09-04T20:33:02.165Z,3.20
2017-09-04T20:35:30.490Z,3.67
2017-09-04T20:37:58.804Z,4.03
2017-09-04T20:40:27.159Z,4.00
2017-09-04T20:42:55.471Z,3.60
2017-09-04T20:45:23.774Z,3.20
2017-09-04T20:47:52.874Z,3.57
2017-09-04T20:50:21.188Z,3.50
2017-09-04T20:52:49.521Z,3.63
2017-09-04T20:58:14.674Z,3.20
2017-09-04T21:00:42.973Z,3.97
2017-09-04T21:03:11.303Z,4.10
2017-09-04T21:05:39.609Z,4.50
2017-09-04T21:08:07.953Z,4.30
2017-09-04T21:10:36.257Z,4.53
2017-09-04T21:13:04.607Z,3.57
2017-09-04T21:15:32.918Z,4.33
2017-09-04T21:18:02.011Z,3.70
2017-09-04T21:20:31.079Z,4.17
2017-09-04T21:22:59.433Z,4.50
2017-09-04T21:25:27.736Z,4.00
2017-09-04T21:27:56.067Z,4.33
2017-09-04T21:30:24.384Z,3.80
2017-09-04T21:32:52.722Z,3.90
2017-09-04T21:35:24.208Z,3.93
2017-09-04T21:37:52.546Z,4.33
2017-09-04T21:40:20.850Z,3.77
2017-09-04T21:42:49.185Z,3.70
2017-09-04T21:45:17.498Z,4.10
2017-09-04T21:47:45.829Z,4.17
2017-09-04T21:50:14.139Z,4.03
2017-09-04T21:52:42.469Z,4.23
2017-09-04T21:55:10.777Z,3.67
2017-09-04T21:57:39.113Z,4.83
2017-09-04T22:00:07.450Z,3.87
2017-09-04T22:02:35.778Z,4.40
2017-09-04T22:05:04.072Z,4.37
2017-09-04T22:07:32.405Z,4.43
2017-09-04T22:10:00.726Z,4.60
2017-09-04T22:12:29.061Z,4.23
2017-09-04T22:14:57.394Z,4.10
2017-09-04T22:17:25.710Z,3.80
2017-09-04T22:19:54.040Z,3.67
2017-09-04T22:22:22.345Z,4.23
2017-09-04T22:24:50.684Z,4.43
2017-09-04T22:27:18.989Z,4.47
2017-09-04T22:29:47.321Z,3.97
2017-09-04T22:32:15.639Z,4.03
2017-09-04T22:34:43.970Z,4.30
2017-09-04T22:37:12.285Z,4.10
2017-09-04T22:39:40.631Z,4.10
2017-09-04T22:42:08.953Z,4.50
2017-09-04T22:44:37.309Z,4.17
2017-09-04T22:47:05.614Z,4.37
2017-09-04T22:49:33.941Z,3.63
2017-09-04T22:52:02.245Z,4.53
2017-09-04T22:54:30.579Z,4.50
2017-09-04T22:56:58.905Z,3.70
2017-09-04T22:59:28.161Z,4.00
2017-09-04T23:01:56.478Z,3.90
2017-09-04T23:04:24.818Z,4.07
2017-09-04T23:06:53.125Z,4.23
2017-09-04T23:09:21.460Z,4.33
2017-09-04T23:11:49.770Z,4.40
2017-09-04T23:14:18.116Z,4.37
2017-09-04T23:16:46.418Z,4.33
2017-09-04T23:19:14.734Z,5.10
2017-09-04T23:21:43.067Z,4.30
2017-09-04T23:24:11.379Z,5.27
2017-09-04T23:26:39.771Z,4.63
2017-09-04T23:29:08.078Z,4.80
2017-09-04T23:31:36.416Z,4.70
2017-09-04T23:34:04.757Z,4.43
2017-09-04T23:36:33.114Z,4.97
2017-09-04T23:39:01.421Z,4.23
2017-09-04T23:41:29.763Z,4.10
2017-09-04T23:43:58.839Z,4.30
2017-09-04T23:46:27.182Z,4.10
2017-09-04T23:48:55.492Z,4.63
2017-09-04T23:51:23.822Z,5.07
2017-09-04T23:53:52.124Z,4.40
2017-09-04T23:56:20.466Z,4.57
2017-09-04T23:58:48.776Z,5.07
